Sevier River near Sigurd




Date 2017 Battery Voltage (V) 2017 Panel Temperature (degC) 2017 River Stage (ft) 2017 River Discharge (cfs)
12/01/2017 13.37 4.88 1.53 69
12/02/2017 13.34 6.13 1.79 100
12/03/2017 13.12 8.02 2.11 146
12/04/2017 13.27 -0.51 2.18 158
12/05/2017 13.41 -3.28 2.35 193
12/06/2017 13.43 -3.35 2.34 189
12/07/2017 13.44 -4.04 2.26 173
12/08/2017 13.42 -2.87 2.31 181
12/09/2017 13.41 -2.53 2.44 207
12/10/2017 13.41 -2.69 2.41 202
12/11/2017 13.41 -2.51 2.38 194
12/12/2017 13.39 -0.74 2.37 193
12/13/2017 13.36 0.13 2.45 209
12/14/2017 13.37 2.63 2.50 220
12/15/2017 13.40 -1.48 2.47 214
12/16/2017 13.25 1.11 2.48 216
12/17/2017 13.06 -0.13 2.47 214
12/18/2017 13.25 -1.90 2.48 216
12/19/2017 13.39 1.35 2.47 214
12/20/2017 13.18 7.55 2.50 220
12/21/2017 12.67 -2.13 2.51 223
12/22/2017 12.93 -6.01 2.44 207
12/23/2017 13.01 2.27 2.37 194
12/24/2017 13.07 0.01 2.57 236
12/25/2017 13.22 5.19 2.55 231
12/26/2017 13.37 2.39 2.53 226
12/27/2017 13.37 2.19 2.51 222
12/28/2017 13.35 2.01 2.46 212
12/29/2017 13.32 3.32 2.43 206
12/30/2017 13.16 3.90 2.46 212
12/31/2017 13.24 3.51 2.46 212
Average 197
Maximum 236
Minimum 69
Total Volume (AF) 12,114